Time,TemperatureF,DewpointF,PressureIn,WindDirection,WindDirectionDegrees,WindSpeedMPH,WindSpeedGustMPH,Humidity,HourlyPrecipIn,Conditions,Clouds,dailyrainin,SoftwareType,DateUTC
2013-03-06 00:00:00,62.5,56.9,29.99,West,281,1.0,3.0,82,0.00,,BKN050,0.00,VWS V14.01,2013-03-06 05:00:00,
2013-03-06 00:01:00,62.5,56.9,29.99,East,91,2.0,4.0,82,0.00,,BKN050,0.00,VWS V14.01,2013-03-06 05:01:00,
2013-03-06 00:06:00,62.6,57.4,29.99,SSE,158,1.0,2.0,83,0.00,,OVC050,0.00,VWS V14.01,2013-03-06 05:06:00,
2013-03-06 00:11:00,62.7,57.5,29.99,East,90,1.0,4.0,83,0.00,,OVC050,0.00,VWS V14.01,2013-03-06 05:11:00,
2013-03-06 00:16:00,62.8,57.6,29.99,SE,136,1.0,4.0,83,0.00,,OVC050,0.00,VWS V14.01,2013-03-06 05:16:00,
2013-03-06 00:21:00,62.9,57.7,29.99,NNW,345,0.0,4.0,83,0.00,,OVC050,0.00,VWS V14.01,2013-03-06 05:21:00,
2013-03-06 00:26:00,63.0,57.8,29.99,WNW,284,0.0,4.0,83,0.00,,OVC050,0.00,VWS V14.01,2013-03-06 05:26:00,
2013-03-06 00:31:00,63.1,57.9,29.99,ESE,110,0.0,5.0,83,0.00,,OVC050,0.00,VWS V14.01,2013-03-06 05:31:00,
2013-03-06 00:36:00,63.0,58.1,29.99,ENE,78,2.0,4.0,84,0.00,,OVC050,0.00,VWS V14.01,2013-03-06 05:36:00,
2013-03-06 00:41:00,62.8,57.9,29.98,West,280,0.0,4.0,84,0.00,,OVC050,0.00,VWS V14.01,2013-03-06 05:41:00,
2013-03-06 00:46:00,62.7,58.1,29.98,ENE,57,0.0,4.0,85,0.00,,OVC050,0.00,VWS V14.01,2013-03-06 05:46:00,
2013-03-06 00:52:00,62.6,58.0,29.98,ENE,78,0.0,4.0,85,0.00,,OVC050,0.00,VWS V14.01,2013-03-06 05:52:00,
2013-03-06 00:57:00,62.5,58.3,29.97,South,170,2.0,4.0,86,0.00,,OVC050,0.00,VWS V14.01,2013-03-06 05:57:00,
2013-03-06 01:02:00,62.4,58.2,29.97,ESE,108,0.0,4.0,86,0.00,,CLR,0.00,VWS V14.01,2013-03-06 06:02:00,
2013-03-06 01:07:00,62.3,58.1,29.97,East,94,1.0,2.0,86,0.00,,CLR,0.00,VWS V14.01,2013-03-06 06:07:00,
2013-03-06 01:12:00,62.3,58.4,29.97,East,86,1.0,5.0,87,0.00,,CLR,0.00,VWS V14.01,2013-03-06 06:12:00,
2013-03-06 01:17:00,62.2,58.3,29.97,ENE,64,1.0,5.0,87,0.00,,CLR,0.00,VWS V14.01,2013-03-06 06:17:00,
2013-03-06 01:22:00,62.1,58.2,29.96,SE,133,1.0,5.0,87,0.00,,CLR,0.00,VWS V14.01,2013-03-06 06:22:00,
2013-03-06 01:27:00,62.0,58.1,29.96,SW,228,1.0,5.0,87,0.00,,CLR,0.00,VWS V14.01,2013-03-06 06:27:00,
2013-03-06 01:33:00,61.9,58.3,29.96,WSW,245,1.0,5.0,88,0.00,,CLR,0.00,VWS V14.01,2013-03-06 06:33:00,
2013-03-06 01:38:00,61.8,58.2,29.96,ESE,110,0.0,6.0,88,0.00,,CLR,0.00,VWS V14.01,2013-03-06 06:38:00,
2013-03-06 01:43:00,61.7,58.1,29.96,SSW,195,0.0,6.0,88,0.00,,CLR,0.00,VWS V14.01,2013-03-06 06:43:00,
2013-03-06 01:48:00,61.6,58.0,29.95,WSW,244,0.0,6.0,88,0.00,,CLR,0.00,VWS V14.01,2013-03-06 06:48:00,
2013-03-06 01:53:00,61.5,58.2,29.95,SW,221,1.0,6.0,89,0.00,,CLR,0.00,VWS V14.01,2013-03-06 06:53:00,
2013-03-06 01:58:00,61.4,58.1,29.95,West,263,0.0,6.0,89,0.00,,CLR,0.00,VWS V14.01,2013-03-06 06:58:00,
2013-03-06 02:03:00,61.3,58.0,29.95,WNW,288,0.0,6.0,89,0.00,,CLR,0.00,VWS V14.01,2013-03-06 07:03:00,
2013-03-06 02:08:00,61.2,57.9,29.95,West,266,1.0,3.0,89,0.00,,CLR,0.00,VWS V14.01,2013-03-06 07:08:00,
2013-03-06 02:13:00,61.1,58.2,29.95,SE,132,1.0,3.0,90,0.00,,CLR,0.00,VWS V14.01,2013-03-06 07:13:00,
2013-03-06 02:19:00,60.9,58.0,29.94,East,91,0.0,3.0,90,0.00,,CLR,0.00,VWS V14.01,2013-03-06 07:19:00,
2013-03-06 02:24:00,60.8,57.8,29.94,ESE,110,0.0,3.0,90,0.00,,CLR,0.00,VWS V14.01,2013-03-06 07:24:00,
2013-03-06 02:29:00,60.7,57.8,29.94,East,85,1.0,3.0,90,0.00,,CLR,0.00,VWS V14.01,2013-03-06 07:29:00,
2013-03-06 02:34:00,60.6,58.0,29.94,WNW,288,0.0,0.0,91,0.00,,CLR,0.00,VWS V14.01,2013-03-06 07:34:00,
2013-03-06 02:39:00,60.7,58.1,29.94,SE,146,1.0,3.0,91,0.00,,CLR,0.00,VWS V14.01,2013-03-06 07:39:00,
2013-03-06 02:44:00,60.9,58.3,29.93,West,271,0.0,6.0,91,0.00,,CLR,0.00,VWS V14.01,2013-03-06 07:44:00,
2013-03-06 02:49:00,61.2,58.2,29.93,SW,228,0.0,6.0,90,0.00,,CLR,0.00,VWS V14.01,2013-03-06 07:49:00,
2013-03-06 02:54:00,61.4,58.5,29.93,SE,145,0.0,6.0,90,0.00,,CLR,0.00,VWS V14.01,2013-03-06 07:54:00,
2013-03-06 03:00:00,61.6,58.6,29.93,SW,224,0.0,6.0,90,0.00,,CLR,0.00,VWS V14.01,2013-03-06 08:00:00,
2013-03-06 03:05:00,61.7,58.7,29.92,SSE,156,1.0,3.0,90,0.00,,BKN060,0.00,VWS V14.01,2013-03-06 08:05:00,
2013-03-06 03:10:00,61.7,58.7,29.93,West,278,2.0,4.0,90,0.00,,BKN060,0.00,VWS V14.01,2013-03-06 08:10:00,
2013-03-06 03:15:00,61.8,58.8,29.93,SSE,159,0.0,6.0,90,0.00,,BKN060,0.00,VWS V14.01,2013-03-06 08:15:00,
2013-03-06 03:20:00,61.8,58.8,29.92,SSE,165,0.0,6.0,90,0.00,,BKN060,0.00,VWS V14.01,2013-03-06 08:20:00,
2013-03-06 03:25:00,61.7,58.7,29.92,ENE,62,1.0,6.0,90,0.00,,BKN060,0.00,VWS V14.01,2013-03-06 08:25:00,
2013-03-06 03:30:00,61.7,58.7,29.92,ESE,117,0.0,6.0,90,0.00,,BKN060,0.00,VWS V14.01,2013-03-06 08:30:00,
2013-03-06 03:35:00,61.5,58.8,29.92,SSE,159,0.0,1.0,91,0.00,,BKN060,0.00,VWS V14.01,2013-03-06 08:35:00,
2013-03-06 03:40:00,61.4,58.8,29.92,SE,139,1.0,4.0,91,0.00,,BKN060,0.00,VWS V14.01,2013-03-06 08:40:00,
2013-03-06 03:45:00,61.4,58.8,29.92,WSW,248,3.0,7.0,91,0.00,,BKN060,0.00,VWS V14.01,2013-03-06 08:45:00,
2013-03-06 03:50:00,61.4,59.1,29.91,ENE,65,2.0,7.0,92,0.00,,BKN060,0.00,VWS V14.01,2013-03-06 08:50:00,
2013-03-06 03:56:00,61.4,59.1,29.91,ENE,77,1.0,7.0,92,0.00,,BKN060,0.00,VWS V14.01,2013-03-06 08:56:00,
2013-03-06 04:01:00,61.3,59.0,29.91,NNW,343,3.0,7.0,92,0.00,,BKN060,0.00,VWS V14.01,2013-03-06 09:01:00,
2013-03-06 04:06:00,61.2,58.9,29.91,SW,233,1.0,4.0,92,0.00,,SCT065,0.00,VWS V14.01,2013-03-06 09:06:00,
2013-03-06 04:11:00,61.1,58.8,29.91,ESE,113,1.0,6.0,92,0.00,,SCT065,0.00,VWS V14.01,2013-03-06 09:11:00,
2013-03-06 04:16:00,61.0,59.0,29.91,ENE,77,1.0,6.0,93,0.00,,SCT065,0.00,VWS V14.01,2013-03-06 09:16:00,
2013-03-06 04:21:00,61.0,59.0,29.91,West,278,1.0,6.0,93,0.00,,SCT065,0.00,VWS V14.01,2013-03-06 09:21:00,
2013-03-06 04:26:00,61.0,59.0,29.91,ESE,105,2.0,6.0,93,0.00,,SCT065,0.00,VWS V14.01,2013-03-06 09:26:00,
2013-03-06 04:31:00,61.0,59.0,29.91,East,86,0.0,6.0,93,0.00,,SCT065,0.00,VWS V14.01,2013-03-06 09:31:00,
2013-03-06 04:36:00,61.0,59.0,29.92,ESE,109,1.0,2.0,93,0.00,,SCT065,0.00,VWS V14.01,2013-03-06 09:36:00,
2013-03-06 04:41:00,61.0,59.0,29.92,East,94,2.0,3.0,93,0.00,,SCT065,0.00,VWS V14.01,2013-03-06 09:41:00,
2013-03-06 04:46:00,61.0,59.0,29.92,SSW,201,1.0,3.0,93,0.00,,SCT065,0.00,VWS V14.01,2013-03-06 09:46:00,
2013-03-06 04:52:00,61.0,59.0,29.92,West,281,1.0,3.0,93,0.00,,SCT065,0.00,VWS V14.01,2013-03-06 09:52:00,
2013-03-06 04:57:00,61.1,59.4,29.92,SW,225,0.0,3.0,94,0.00,,SCT065,0.00,VWS V14.01,2013-03-06 09:57:00,
2013-03-06 05:02:00,61.1,59.4,29.92,SSE,149,1.0,3.0,94,0.00,,SCT065,0.00,VWS V14.01,2013-03-06 10:02:00,
2013-03-06 05:07:00,61.3,59.6,29.92,ESE,109,1.0,3.0,94,0.00,,SCT065,0.00,VWS V14.01,2013-03-06 10:07:00,
2013-03-06 05:12:00,61.4,59.7,29.92,NNW,331,0.0,4.0,94,0.00,,SCT065,0.00,VWS V14.01,2013-03-06 10:12:00,
2013-03-06 05:17:00,61.5,59.8,29.92,ENE,74,0.0,4.0,94,0.00,,OVC075,0.00,VWS V14.01,2013-03-06 10:17:00,
2013-03-06 05:22:00,61.6,59.9,29.92,SE,146,3.0,4.0,94,0.00,,OVC075,0.00,VWS V14.01,2013-03-06 10:22:00,
2013-03-06 05:27:00,61.8,60.1,29.93,WNW,295,1.0,4.0,94,0.00,,OVC075,0.00,VWS V14.01,2013-03-06 10:27:00,
2013-03-06 05:33:00,61.9,59.9,29.94,WNW,287,0.0,5.0,93,0.00,,OVC075,0.00,VWS V14.01,2013-03-06 10:33:00,
2013-03-06 05:38:00,62.0,60.0,29.94,WNW,293,2.0,2.0,93,0.00,,OVC075,0.00,VWS V14.01,2013-03-06 10:38:00,
2013-03-06 05:43:00,62.2,60.2,29.95,WNW,294,0.0,4.0,93,0.00,,OVC075,0.00,VWS V14.01,2013-03-06 10:43:00,
2013-03-06 05:48:00,62.2,60.2,29.95,West,280,0.0,4.0,93,0.00,,OVC075,0.00,VWS V14.01,2013-03-06 10:48:00,
2013-03-06 05:53:00,62.2,60.5,29.95,East,79,0.0,4.0,94,0.00,,OVC075,0.00,VWS V14.01,2013-03-06 10:53:00,
2013-03-06 05:58:00,62.4,60.7,29.94,WNW,285,1.0,5.0,94,0.00,,OVC075,0.00,VWS V14.01,2013-03-06 10:58:00,
2013-03-06 06:03:00,62.7,60.7,29.94,SE,136,1.0,5.0,93,0.00,,OVC034,0.00,VWS V14.01,2013-03-06 11:03:00,
2013-03-06 06:09:00,63.0,60.0,29.95,West,277,3.0,5.0,90,0.00,,OVC034,0.00,VWS V14.01,2013-03-06 11:09:00,
2013-03-06 06:14:00,63.1,59.8,29.95,ESE,115,1.0,5.0,89,0.00,,OVC034,0.00,VWS V14.01,2013-03-06 11:14:00,
2013-03-06 06:19:00,63.1,58.5,29.95,SW,225,3.0,6.0,85,0.00,,OVC034,0.00,VWS V14.01,2013-03-06 11:19:00,
2013-03-06 06:24:00,63.0,57.8,29.95,WNW,287,0.0,7.0,83,0.00,,OVC034,0.00,VWS V14.01,2013-03-06 11:24:00,
2013-03-06 06:29:00,62.9,57.3,29.96,NW,307,0.0,7.0,82,0.00,,OVC034,0.00,VWS V14.01,2013-03-06 11:29:00,
2013-03-06 06:34:00,62.9,56.6,29.96,WNW,287,2.0,3.0,80,0.00,,OVC034,0.00,VWS V14.01,2013-03-06 11:34:00,
2013-03-06 06:39:00,62.7,56.1,29.96,NNE,32,0.0,4.0,79,0.00,,OVC034,0.00,VWS V14.01,2013-03-06 11:39:00,
2013-03-06 06:44:00,62.4,55.8,29.96,East,84,0.0,5.0,79,0.00,,OVC034,0.00,VWS V14.01,2013-03-06 11:44:00,
2013-03-06 06:50:00,62.0,55.8,29.97,West,281,0.0,6.0,80,0.00,,OVC034,0.00,VWS V14.01,2013-03-06 11:50:00,
2013-03-06 06:55:00,61.7,55.8,29.97,WNW,293,0.0,7.0,81,0.00,,OVC034,0.00,VWS V14.01,2013-03-06 11:55:00,
2013-03-06 07:00:00,61.6,56.1,29.97,NNW,334,0.0,7.0,82,0.00,,OVC034,0.00,VWS V14.01,2013-03-06 12:00:00,
2013-03-06 07:05:00,61.4,55.9,29.98,NW,321,2.0,3.0,82,0.00,,FEW024,0.00,VWS V14.01,2013-03-06 12:05:00,
2013-03-06 07:10:00,61.1,55.2,29.99,ENE,58,0.0,6.0,81,0.00,,FEW024,0.00,VWS V14.01,2013-03-06 12:10:00,
2013-03-06 07:15:00,60.7,53.5,30.00,NNW,341,1.0,6.0,77,0.00,,FEW024,0.00,VWS V14.01,2013-03-06 12:15:00,
2013-03-06 07:20:00,59.9,51.2,30.01,WNW,294,4.0,6.0,73,0.00,,FEW024,0.00,VWS V14.01,2013-03-06 12:20:00,
2013-03-06 07:26:00,58.8,47.5,30.01,ENE,78,2.0,7.0,66,0.00,,FEW024,0.00,VWS V14.01,2013-03-06 12:26:00,
2013-03-06 07:31:00,57.9,42.8,30.02,East,79,0.0,7.0,57,0.00,,FEW024,0.00,VWS V14.01,2013-03-06 12:31:00,
2013-03-06 07:36:00,57.3,41.8,30.02,NW,311,0.0,7.0,56,0.00,,FEW024,0.00,VWS V14.01,2013-03-06 12:36:00,
2013-03-06 07:41:00,56.6,37.7,30.02,ESE,114,2.0,7.0,49,0.00,,FEW024,0.00,VWS V14.01,2013-03-06 12:41:00,
2013-03-06 07:46:00,56.1,36.2,30.02,North,5,0.0,7.0,47,0.00,,FEW024,0.00,VWS V14.01,2013-03-06 12:46:00,
2013-03-06 07:51:00,55.7,35.8,30.03,WSW,245,1.0,7.0,47,0.00,,FEW024,0.00,VWS V14.01,2013-03-06 12:51:00,
2013-03-06 07:56:00,55.4,36.1,30.05,NE,47,1.0,13.0,48,0.00,,FEW024,0.00,VWS V14.01,2013-03-06 12:56:00,
2013-03-06 08:02:00,55.1,36.8,30.05,WNW,291,0.0,13.0,50,0.00,,FEW050,0.00,VWS V14.01,2013-03-06 13:02:00,
2013-03-06 08:07:00,54.8,36.0,30.04,West,274,0.0,5.0,49,0.00,,FEW050,0.00,VWS V14.01,2013-03-06 13:07:00,
2013-03-06 08:12:00,54.4,36.2,30.05,ESE,122,4.0,8.0,50,0.00,,FEW050,0.00,VWS V14.01,2013-03-06 13:12:00,
2013-03-06 08:17:00,53.6,35.9,30.06,WSW,246,2.0,8.0,51,0.00,,FEW050,0.00,VWS V14.01,2013-03-06 13:17:00,
2013-03-06 08:22:00,53.1,35.5,30.06,ESE,116,1.0,8.0,51,0.00,,FEW050,0.00,VWS V14.01,2013-03-06 13:22:00,
2013-03-06 08:27:00,53.1,34.5,30.06,WSW,255,1.0,9.0,49,0.00,,FEW050,0.00,VWS V14.01,2013-03-06 13:27:00,
2013-03-06 08:32:00,53.0,33.8,30.07,NE,54,2.0,9.0,48,0.00,,FEW050,0.00,VWS V14.01,2013-03-06 13:32:00,
2013-03-06 08:38:00,52.5,33.9,30.07,NW,314,0.0,5.0,49,0.00,,FEW050,0.00,VWS V14.01,2013-03-06 13:38:00,
2013-03-06 08:43:00,52.4,34.3,30.07,NNE,28,1.0,5.0,50,0.00,,FEW050,0.00,VWS V14.01,2013-03-06 13:43:00,
2013-03-06 08:48:00,52.2,33.1,30.07,NE,56,1.0,6.0,48,0.00,,FEW050,0.00,VWS V14.01,2013-03-06 13:48:00,
2013-03-06 08:53:00,52.1,33.5,30.07,NE,46,0.0,6.0,49,0.00,,FEW050,0.00,VWS V14.01,2013-03-06 13:53:00,
2013-03-06 08:58:00,52.3,34.2,30.07,WSW,257,1.0,6.0,50,0.00,,FEW050,0.00,VWS V14.01,2013-03-06 13:58:00,
2013-03-06 09:03:00,52.5,34.9,30.07,WSW,255,0.0,6.0,51,0.00,,FEW060,0.00,VWS V14.01,2013-03-06 14:03:00,
2013-03-06 09:08:00,53.0,34.4,30.07,SSW,200,0.0,6.0,49,0.00,,FEW060,0.00,VWS V14.01,2013-03-06 14:08:00,
2013-03-06 09:13:00,53.5,34.8,30.07,East,89,0.0,6.0,49,0.00,,FEW060,0.00,VWS V14.01,2013-03-06 14:13:00,
2013-03-06 09:19:00,53.8,34.6,30.07,ENE,68,1.0,6.0,48,0.00,,FEW060,0.00,VWS V14.01,2013-03-06 14:19:00,
2013-03-06 09:24:00,54.1,34.9,30.07,North,4,1.0,7.0,48,0.00,,FEW060,0.00,VWS V14.01,2013-03-06 14:24:00,
2013-03-06 09:29:00,54.3,34.5,30.07,NNW,329,1.0,7.0,47,0.00,,FEW060,0.00,VWS V14.01,2013-03-06 14:29:00,
2013-03-06 09:34:00,54.8,35.0,30.07,ENE,65,3.0,10.0,47,0.00,,FEW060,0.00,VWS V14.01,2013-03-06 14:34:00,
2013-03-06 09:39:00,54.9,33.4,30.08,West,259,3.0,6.0,44,0.00,,FEW060,0.00,VWS V14.01,2013-03-06 14:39:00,
2013-03-06 09:44:00,54.9,34.0,30.07,East,79,3.0,6.0,45,0.00,,FEW060,0.00,VWS V14.01,2013-03-06 14:44:00,
2013-03-06 09:49:00,55.3,34.9,30.07,ESE,113,0.0,6.0,46,0.00,,FEW060,0.00,VWS V14.01,2013-03-06 14:49:00,
2013-03-06 09:54:00,56.1,36.2,30.07,ESE,110,1.0,6.0,47,0.00,,FEW060,0.00,VWS V14.01,2013-03-06 14:54:00,
2013-03-06 10:00:00,56.3,35.2,30.07,SE,142,3.0,7.0,45,0.00,,FEW060,0.00,VWS V14.01,2013-03-06 15:00:00,
2013-03-06 10:05:00,56.0,35.0,30.07,WNW,293,1.0,4.0,45,0.00,,CLR,0.00,VWS V14.01,2013-03-06 15:05:00,
2013-03-06 10:10:00,56.5,35.4,30.07,NW,319,2.0,5.0,45,0.00,,CLR,0.00,VWS V14.01,2013-03-06 15:10:00,
2013-03-06 10:15:00,56.5,35.4,30.07,ENE,60,1.0,8.0,45,0.00,,CLR,0.00,VWS V14.01,2013-03-06 15:15:00,
2013-03-06 10:20:00,56.9,34.1,30.07,ESE,109,0.0,8.0,42,0.00,,CLR,0.00,VWS V14.01,2013-03-06 15:20:00,
2013-03-06 10:25:00,57.3,34.4,30.07,WNW,290,1.0,9.0,42,0.00,,CLR,0.00,VWS V14.01,2013-03-06 15:25:00,
2013-03-06 10:30:00,57.5,34.6,30.06,West,281,1.0,9.0,42,0.00,,CLR,0.00,VWS V14.01,2013-03-06 15:30:00,
2013-03-06 10:35:00,57.5,34.6,30.06,SE,136,0.0,3.0,42,0.00,,CLR,0.00,VWS V14.01,2013-03-06 15:35:00,
2013-03-06 10:40:00,57.8,33.7,30.07,NE,47,2.0,11.0,40,0.00,,CLR,0.00,VWS V14.01,2013-03-06 15:40:00,
2013-03-06 10:45:00,58.1,32.7,30.06,NE,36,1.0,11.0,38,0.00,,CLR,0.00,VWS V14.01,2013-03-06 15:45:00,
2013-03-06 10:50:00,58.8,35.8,30.06,NNW,330,0.0,11.0,42,0.00,,CLR,0.00,VWS V14.01,2013-03-06 15:50:00,
2013-03-06 10:56:00,59.2,33.0,30.05,WNW,287,4.0,11.0,37,0.00,,CLR,0.00,VWS V14.01,2013-03-06 15:56:00,
2013-03-06 11:01:00,59.2,33.0,30.05,WNW,287,1.0,11.0,37,0.00,,CLR,0.00,VWS V14.01,2013-03-06 16:01:00,
2013-03-06 11:06:00,59.1,34.8,30.05,North,11,3.0,4.0,40,0.00,,CLR,0.00,VWS V14.01,2013-03-06 16:06:00,
2013-03-06 11:11:00,59.9,35.5,30.05,ESE,115,2.0,7.0,40,0.00,,CLR,0.00,VWS V14.01,2013-03-06 16:11:00,
2013-03-06 11:16:00,60.1,33.1,30.05,SE,125,1.0,11.0,36,0.00,,CLR,0.00,VWS V14.01,2013-03-06 16:16:00,
2013-03-06 11:21:00,60.0,31.6,30.04,East,86,2.0,11.0,34,0.00,,CLR,0.00,VWS V14.01,2013-03-06 16:21:00,
2013-03-06 11:26:00,60.3,31.8,30.04,West,271,3.0,11.0,34,0.00,,CLR,0.00,VWS V14.01,2013-03-06 16:26:00,
2013-03-06 11:31:00,60.5,32.7,30.04,West,280,6.0,13.0,35,0.00,,CLR,0.00,VWS V14.01,2013-03-06 16:31:00,
2013-03-06 11:36:00,60.9,31.6,30.04,East,79,2.0,9.0,33,0.00,,CLR,0.00,VWS V14.01,2013-03-06 16:36:00,
2013-03-06 11:41:00,61.6,33.0,30.03,SE,136,1.0,9.0,34,0.00,,CLR,0.00,VWS V14.01,2013-03-06 16:41:00,
2013-03-06 11:47:00,61.8,33.2,30.03,ENE,70,3.0,9.0,34,0.00,,CLR,0.00,VWS V14.01,2013-03-06 16:47:00,
2013-03-06 11:52:00,62.1,32.7,30.02,NW,315,1.0,9.0,33,0.00,,CLR,0.00,VWS V14.01,2013-03-06 16:52:00,
2013-03-06 11:57:00,62.7,33.2,30.02,West,264,6.0,9.0,33,0.00,,CLR,0.00,VWS V14.01,2013-03-06 16:57:00,
2013-03-06 12:02:00,62.7,30.8,30.02,WSW,255,3.0,9.0,30,0.00,,CLR,0.00,VWS V14.01,2013-03-06 17:02:00,
2013-03-06 12:07:00,63.1,30.4,30.02,WSW,247,2.0,9.0,29,0.00,,CLR,0.00,VWS V14.01,2013-03-06 17:07:00,
2013-03-06 12:12:00,63.4,31.5,30.01,NE,39,2.0,9.0,30,0.00,,CLR,0.00,VWS V14.01,2013-03-06 17:12:00,
2013-03-06 12:17:00,64.1,29.5,30.01,ENE,61,2.0,10.0,27,0.00,,CLR,0.00,VWS V14.01,2013-03-06 17:17:00,
2013-03-06 12:22:00,64.7,30.0,30.01,WNW,287,2.0,10.0,27,0.00,,CLR,0.00,VWS V14.01,2013-03-06 17:22:00,
2013-03-06 12:27:00,65.0,32.0,30.00,SSE,154,2.0,10.0,29,0.00,,CLR,0.00,VWS V14.01,2013-03-06 17:27:00,
2013-03-06 12:32:00,65.3,33.1,30.00,West,263,4.0,10.0,30,0.00,,CLR,0.00,VWS V14.01,2013-03-06 17:32:00,
2013-03-06 12:38:00,65.8,30.9,30.00,West,262,2.0,5.0,27,0.00,,CLR,0.00,VWS V14.01,2013-03-06 17:38:00,
2013-03-06 12:43:00,65.6,30.8,29.99,WNW,302,4.0,11.0,27,0.00,,CLR,0.00,VWS V14.01,2013-03-06 17:43:00,
2013-03-06 12:48:00,65.8,31.8,29.99,West,281,2.0,11.0,28,0.00,,CLR,0.00,VWS V14.01,2013-03-06 17:48:00,
2013-03-06 12:53:00,66.5,31.5,29.99,West,281,1.0,11.0,27,0.00,,CLR,0.00,VWS V14.01,2013-03-06 17:53:00,
2013-03-06 12:58:00,66.7,31.7,29.98,SSE,163,1.0,11.0,27,0.00,,CLR,0.00,VWS V14.01,2013-03-06 17:58:00,
2013-03-06 13:03:00,67.0,32.0,29.98,NW,314,3.0,11.0,27,0.00,,CLR,0.00,VWS V14.01,2013-03-06 18:03:00,
2013-03-06 13:09:00,67.0,32.8,29.98,WNW,287,4.0,7.0,28,0.00,,CLR,0.00,VWS V14.01,2013-03-06 18:09:00,
2013-03-06 13:14:00,67.4,33.2,29.98,WNW,285,2.0,9.0,28,0.00,,CLR,0.00,VWS V14.01,2013-03-06 18:14:00,
2013-03-06 13:19:00,67.8,31.7,29.97,WNW,285,1.0,9.0,26,0.00,,CLR,0.00,VWS V14.01,2013-03-06 18:19:00,
2013-03-06 13:24:00,68.0,33.7,29.97,NE,51,1.0,9.0,28,0.00,,CLR,0.00,VWS V14.01,2013-03-06 18:24:00,
2013-03-06 13:29:00,68.3,34.0,29.97,NE,55,3.0,9.0,28,0.00,,CLR,0.00,VWS V14.01,2013-03-06 18:29:00,
2013-03-06 13:34:00,68.5,33.2,29.97,NW,321,1.0,2.0,27,0.00,,CLR,0.00,VWS V14.01,2013-03-06 18:34:00,
2013-03-06 13:39:00,68.6,32.4,29.96,WNW,283,5.0,8.0,26,0.00,,CLR,0.00,VWS V14.01,2013-03-06 18:39:00,
2013-03-06 13:44:00,68.4,34.0,29.96,WSW,250,2.0,10.0,28,0.00,,CLR,0.00,VWS V14.01,2013-03-06 18:44:00,
2013-03-06 13:49:00,68.3,34.0,29.95,North,354,1.0,10.0,28,0.00,,CLR,0.00,VWS V14.01,2013-03-06 18:49:00,
2013-03-06 13:55:00,68.4,35.8,29.95,West,278,1.0,10.0,30,0.00,,CLR,0.00,VWS V14.01,2013-03-06 18:55:00,
2013-03-06 14:00:00,69.0,33.7,29.95,West,276,10.0,10.0,27,0.00,,CLR,0.00,VWS V14.01,2013-03-06 19:00:00,
2013-03-06 14:05:00,68.7,32.5,29.95,NNE,30,3.0,8.0,26,0.00,,CLR,0.00,VWS V14.01,2013-03-06 19:05:00,
2013-03-06 14:10:00,68.4,32.2,29.95,North,349,3.0,12.0,26,0.00,,CLR,0.00,VWS V14.01,2013-03-06 19:10:00,
2013-03-06 14:15:00,68.5,32.3,29.95,WNW,295,1.0,12.0,26,0.00,,CLR,0.00,VWS V14.01,2013-03-06 19:15:00,
2013-03-06 14:20:00,69.3,34.8,29.95,NW,308,0.0,12.0,28,0.00,,CLR,0.00,VWS V14.01,2013-03-06 19:20:00,
2013-03-06 14:25:00,69.5,33.1,29.94,WNW,284,3.0,12.0,26,0.00,,CLR,0.00,VWS V14.01,2013-03-06 19:25:00,
2013-03-06 14:30:00,68.9,32.6,29.94,NNE,33,1.0,12.0,26,0.00,,CLR,0.00,VWS V14.01,2013-03-06 19:30:00,
2013-03-06 14:35:00,69.1,34.7,29.95,ENE,77,1.0,7.0,28,0.00,,CLR,0.00,VWS V14.01,2013-03-06 19:35:00,
2013-03-06 14:41:00,69.3,33.9,29.94,NW,308,2.0,8.0,27,0.00,,CLR,0.00,VWS V14.01,2013-03-06 19:41:00,
2013-03-06 14:46:00,69.6,34.2,29.94,West,277,4.0,8.0,27,0.00,,CLR,0.00,VWS V14.01,2013-03-06 19:46:00,
2013-03-06 14:51:00,70.3,34.8,29.94,WNW,287,3.0,8.0,27,0.00,,CLR,0.00,VWS V14.01,2013-03-06 19:51:00,
2013-03-06 14:56:00,70.2,33.7,29.94,North,349,4.0,8.0,26,0.00,,CLR,0.00,VWS V14.01,2013-03-06 19:56:00,
2013-03-06 15:01:00,69.6,33.2,29.94,West,271,2.0,8.0,26,0.00,,CLR,0.00,VWS V14.01,2013-03-06 20:01:00,
2013-03-06 15:06:00,69.1,33.7,29.94,WSW,248,5.0,5.0,27,0.00,,CLR,0.00,VWS V14.01,2013-03-06 20:06:00,
2013-03-06 15:11:00,69.3,32.0,29.94,NE,56,2.0,8.0,25,0.00,,CLR,0.00,VWS V14.01,2013-03-06 20:11:00,
2013-03-06 15:16:00,69.2,31.9,29.93,WNW,300,1.0,10.0,25,0.00,,CLR,0.00,VWS V14.01,2013-03-06 20:16:00,
2013-03-06 15:21:00,69.7,35.2,29.93,WNW,290,2.0,10.0,28,0.00,,CLR,0.00,VWS V14.01,2013-03-06 20:21:00,
2013-03-06 15:26:00,69.8,32.4,29.93,WNW,284,3.0,11.0,25,0.00,,CLR,0.00,VWS V14.01,2013-03-06 20:26:00,
2013-03-06 15:32:00,69.7,32.3,29.93,NE,50,1.0,11.0,25,0.00,,CLR,0.00,VWS V14.01,2013-03-06 20:32:00,
2013-03-06 15:37:00,69.7,32.3,29.93,NE,37,1.0,9.0,25,0.00,,CLR,0.00,VWS V14.01,2013-03-06 20:37:00,
2013-03-06 15:42:00,69.5,33.1,29.93,East,84,2.0,9.0,26,0.00,,CLR,0.00,VWS V14.01,2013-03-06 20:42:00,
2013-03-06 15:47:00,69.2,32.9,29.93,West,281,3.0,13.0,26,0.00,,CLR,0.00,VWS V14.01,2013-03-06 20:47:00,
2013-03-06 15:52:00,69.1,33.7,29.93,NW,307,1.0,13.0,27,0.00,,CLR,0.00,VWS V14.01,2013-03-06 20:52:00,
2013-03-06 15:57:00,69.6,34.2,29.93,SE,132,2.0,13.0,27,0.00,,CLR,0.00,VWS V14.01,2013-03-06 20:57:00,
2013-03-06 16:02:00,69.8,33.4,29.93,ENE,65,1.0,13.0,26,0.00,,CLR,0.00,VWS V14.01,2013-03-06 21:02:00,
2013-03-06 16:07:00,70.0,34.5,29.93,NW,321,0.0,7.0,27,0.00,,CLR,0.00,VWS V14.01,2013-03-06 21:07:00,
2013-03-06 16:13:00,69.3,33.0,29.93,SSE,149,1.0,8.0,26,0.00,,CLR,0.00,VWS V14.01,2013-03-06 21:13:00,
2013-03-06 16:18:00,69.0,35.5,29.93,East,84,2.0,12.0,29,0.00,,CLR,0.00,VWS V14.01,2013-03-06 21:18:00,
2013-03-06 16:23:00,68.9,33.6,29.93,NW,308,4.0,14.0,27,0.00,,CLR,0.00,VWS V14.01,2013-03-06 21:23:00,
2013-03-06 16:28:00,68.8,34.4,29.93,WSW,242,4.0,14.0,28,0.00,,CLR,0.00,VWS V14.01,2013-03-06 21:28:00,
2013-03-06 16:33:00,68.9,34.5,29.93,West,260,1.0,14.0,28,0.00,,CLR,0.00,VWS V14.01,2013-03-06 21:33:00,
2013-03-06 16:38:00,68.4,34.0,29.93,WNW,283,8.0,10.0,28,0.00,,CLR,0.00,VWS V14.01,2013-03-06 21:38:00,
2013-03-06 16:44:00,68.6,34.2,29.93,WNW,290,1.0,10.0,28,0.00,,CLR,0.00,VWS V14.01,2013-03-06 21:44:00,
2013-03-06 16:49:00,68.3,34.8,29.93,NNW,335,0.0,10.0,29,0.00,,CLR,0.00,VWS V14.01,2013-03-06 21:49:00,
2013-03-06 16:54:00,68.2,33.9,29.93,NW,321,5.0,10.0,28,0.00,,CLR,0.00,VWS V14.01,2013-03-06 21:54:00,
2013-03-06 16:59:00,67.9,35.3,29.93,NW,319,3.0,10.0,30,0.00,,CLR,0.00,VWS V14.01,2013-03-06 21:59:00,
2013-03-06 17:04:00,67.4,34.1,29.93,NNE,18,3.0,4.0,29,0.00,,CLR,0.00,VWS V14.01,2013-03-06 22:04:00,
2013-03-06 17:09:00,67.0,34.6,29.93,WNW,290,5.0,8.0,30,0.00,,CLR,0.00,VWS V14.01,2013-03-06 22:09:00,
2013-03-06 17:14:00,66.7,34.3,29.93,NE,55,0.0,9.0,30,0.00,,CLR,0.00,VWS V14.01,2013-03-06 22:14:00,
2013-03-06 17:19:00,66.5,35.0,29.93,WSW,242,4.0,9.0,31,0.00,,CLR,0.00,VWS V14.01,2013-03-06 22:19:00,
2013-03-06 17:24:00,66.0,34.5,29.93,ENE,71,1.0,9.0,31,0.00,,CLR,0.00,VWS V14.01,2013-03-06 22:24:00,
2013-03-06 17:29:00,66.0,35.3,29.94,NW,316,2.0,9.0,32,0.00,,CLR,0.00,VWS V14.01,2013-03-06 22:29:00,
2013-03-06 17:34:00,65.9,35.2,29.94,West,259,1.0,2.0,32,0.00,,CLR,0.00,VWS V14.01,2013-03-06 22:34:00,
2013-03-06 17:40:00,65.8,35.9,29.94,WSW,257,1.0,7.0,33,0.00,,CLR,0.00,VWS V14.01,2013-03-06 22:40:00,
2013-03-06 17:45:00,65.5,35.7,29.95,WNW,287,3.0,7.0,33,0.00,,CLR,0.00,VWS V14.01,2013-03-06 22:45:00,
2013-03-06 17:50:00,65.0,35.2,29.94,West,277,0.0,7.0,33,0.00,,CLR,0.00,VWS V14.01,2013-03-06 22:50:00,
2013-03-06 17:55:00,64.0,35.1,29.95,NE,38,5.0,8.0,34,0.00,,CLR,0.00,VWS V14.01,2013-03-06 22:55:00,
2013-03-06 18:00:00,63.2,35.8,29.95,West,264,1.0,8.0,36,0.00,,CLR,0.00,VWS V14.01,2013-03-06 23:00:00,
2013-03-06 18:05:00,62.5,35.9,29.95,WNW,297,1.0,5.0,37,0.00,,CLR,0.00,VWS V14.01,2013-03-06 23:05:00,
2013-03-06 18:10:00,62.0,36.1,29.96,East,98,0.0,6.0,38,0.00,,CLR,0.00,VWS V14.01,2013-03-06 23:10:00,
2013-03-06 18:16:00,61.5,36.3,29.96,West,263,2.0,7.0,39,0.00,,CLR,0.00,VWS V14.01,2013-03-06 23:16:00,
2013-03-06 18:21:00,61.1,36.6,29.96,NNE,19,1.0,9.0,40,0.00,,CLR,0.00,VWS V14.01,2013-03-06 23:21:00,
2013-03-06 18:26:00,60.5,36.7,29.97,West,264,1.0,9.0,41,0.00,,CLR,0.00,VWS V14.01,2013-03-06 23:26:00,
2013-03-06 18:31:00,60.0,36.9,29.97,NNW,345,4.0,9.0,42,0.00,,CLR,0.00,VWS V14.01,2013-03-06 23:31:00,
2013-03-06 18:36:00,59.5,37.0,29.98,ENE,71,1.0,3.0,43,0.00,,CLR,0.00,VWS V14.01,2013-03-06 23:36:00,
2013-03-06 18:41:00,59.0,37.1,29.98,NE,48,2.0,6.0,44,0.00,,CLR,0.00,VWS V14.01,2013-03-06 23:41:00,
2013-03-06 18:46:00,58.6,37.3,29.99,ENE,59,2.0,6.0,45,0.00,,CLR,0.00,VWS V14.01,2013-03-06 23:46:00,
2013-03-06 18:52:00,58.2,37.0,30.00,ESE,110,2.0,6.0,45,0.00,,CLR,0.00,VWS V14.01,2013-03-06 23:52:00,
2013-03-06 18:57:00,57.8,37.2,30.00,West,269,1.0,6.0,46,0.00,,CLR,0.00,VWS V14.01,2013-03-06 23:57:00,
2013-03-06 19:02:00,57.4,36.8,30.00,WNW,290,1.0,7.0,46,0.00,,CLR,0.00,VWS V14.01,2013-03-07 00:02:00,
2013-03-06 19:07:00,56.9,36.3,30.01,WNW,294,0.0,6.0,46,0.00,,CLR,0.00,VWS V14.01,2013-03-07 00:07:00,
2013-03-06 19:12:00,56.6,36.6,30.01,West,280,4.0,8.0,47,0.00,,CLR,0.00,VWS V14.01,2013-03-07 00:12:00,
2013-03-06 19:17:00,56.2,36.8,30.01,WNW,297,1.0,8.0,48,0.00,,CLR,0.00,VWS V14.01,2013-03-07 00:17:00,
2013-03-06 19:22:00,55.9,37.0,30.01,NW,305,0.0,8.0,49,0.00,,CLR,0.00,VWS V14.01,2013-03-07 00:22:00,
2013-03-06 19:28:00,55.6,36.8,30.02,West,263,0.0,9.0,49,0.00,,CLR,0.00,VWS V14.01,2013-03-07 00:28:00,
2013-03-06 19:33:00,55.3,37.0,30.02,West,273,0.0,9.0,50,0.00,,CLR,0.00,VWS V14.01,2013-03-07 00:33:00,
2013-03-06 19:38:00,55.1,36.8,30.02,West,271,0.0,7.0,50,0.00,,CLR,0.00,VWS V14.01,2013-03-07 00:38:00,
2013-03-06 19:43:00,54.8,36.5,30.03,ENE,65,2.0,8.0,50,0.00,,CLR,0.00,VWS V14.01,2013-03-07 00:43:00,
2013-03-06 19:48:00,54.6,36.3,30.03,WNW,297,0.0,8.0,50,0.00,,CLR,0.00,VWS V14.01,2013-03-07 00:48:00,
2013-03-06 19:53:00,54.3,36.6,30.03,WNW,283,5.0,8.0,51,0.00,,CLR,0.00,VWS V14.01,2013-03-07 00:53:00,
2013-03-06 19:58:00,54.1,36.4,30.04,West,267,0.0,8.0,51,0.00,,CLR,0.00,VWS V14.01,2013-03-07 00:58:00,
2013-03-06 20:03:00,53.9,36.7,30.04,SW,219,2.0,8.0,52,0.00,,CLR,0.00,VWS V14.01,2013-03-07 01:03:00,
2013-03-06 20:08:00,53.8,36.6,30.04,NE,44,3.0,7.0,52,0.00,,CLR,0.00,VWS V14.01,2013-03-07 01:08:00,
2013-03-06 20:14:00,53.7,37.0,30.04,East,82,0.0,7.0,53,0.00,,CLR,0.00,VWS V14.01,2013-03-07 01:14:00,
2013-03-06 20:19:00,53.5,36.8,30.04,East,94,3.0,7.0,53,0.00,,CLR,0.00,VWS V14.01,2013-03-07 01:19:00,
2013-03-06 20:24:00,53.4,36.7,30.04,West,273,0.0,7.0,53,0.00,,CLR,0.00,VWS V14.01,2013-03-07 01:24:00,
2013-03-06 20:29:00,53.2,37.0,30.05,West,280,1.0,7.0,54,0.00,,CLR,0.00,VWS V14.01,2013-03-07 01:29:00,
2013-03-06 20:34:00,52.9,37.2,30.05,WNW,300,3.0,8.0,55,0.00,,CLR,0.00,VWS V14.01,2013-03-07 01:34:00,
2013-03-06 20:39:00,52.8,37.1,30.06,East,82,0.0,8.0,55,0.00,,CLR,0.00,VWS V14.01,2013-03-07 01:39:00,
2013-03-06 20:44:00,52.7,37.0,30.06,West,276,1.0,8.0,55,0.00,,CLR,0.00,VWS V14.01,2013-03-07 01:44:00,
2013-03-06 20:49:00,52.6,36.9,30.06,NNE,18,2.0,8.0,55,0.00,,CLR,0.00,VWS V14.01,2013-03-07 01:49:00,
2013-03-06 20:54:00,52.5,36.8,30.06,East,92,0.0,8.0,55,0.00,,CLR,0.00,VWS V14.01,2013-03-07 01:54:00,
2013-03-06 20:59:00,52.5,36.8,30.06,East,84,1.0,8.0,55,0.00,,CLR,0.00,VWS V14.01,2013-03-07 01:59:00,
2013-03-06 21:05:00,52.4,36.3,30.07,West,263,0.0,1.0,54,0.00,,CLR,0.00,VWS V14.01,2013-03-07 02:05:00,
2013-03-06 21:10:00,52.4,36.7,30.07,West,262,0.0,4.0,55,0.00,,CLR,0.00,VWS V14.01,2013-03-07 02:10:00,
2013-03-06 21:15:00,52.3,36.6,30.07,ESE,110,0.0,4.0,55,0.00,,CLR,0.00,VWS V14.01,2013-03-07 02:15:00,
2013-03-06 21:20:00,52.1,36.4,30.07,NE,56,1.0,4.0,55,0.00,,CLR,0.00,VWS V14.01,2013-03-07 02:20:00,
2013-03-06 21:25:00,52.1,36.4,30.07,ENE,63,0.0,6.0,55,0.00,,CLR,0.00,VWS V14.01,2013-03-07 02:25:00,
2013-03-06 21:30:00,51.9,36.7,30.08,East,101,2.0,6.0,56,0.00,,CLR,0.00,VWS V14.01,2013-03-07 02:30:00,
2013-03-06 21:35:00,51.8,36.6,30.08,ESE,103,0.0,2.0,56,0.00,,CLR,0.00,VWS V14.01,2013-03-07 02:35:00,
2013-03-06 21:40:00,51.7,37.0,30.08,NNE,22,0.0,3.0,57,0.00,,CLR,0.00,VWS V14.01,2013-03-07 02:40:00,
2013-03-06 21:46:00,51.6,36.9,30.09,NE,48,1.0,4.0,57,0.00,,CLR,0.00,VWS V14.01,2013-03-07 02:46:00,
2013-03-06 21:51:00,51.6,36.9,30.09,North,4,1.0,4.0,57,0.00,,CLR,0.00,VWS V14.01,2013-03-07 02:51:00,
2013-03-06 21:56:00,51.5,36.8,30.09,ENE,68,0.0,5.0,57,0.00,,CLR,0.00,VWS V14.01,2013-03-07 02:56:00,
2013-03-06 22:01:00,51.4,36.7,30.09,NW,324,0.0,5.0,57,0.00,,CLR,0.00,VWS V14.01,2013-03-07 03:01:00,
2013-03-06 22:06:00,51.3,36.6,30.09,West,270,2.0,2.0,57,0.00,,CLR,0.00,VWS V14.01,2013-03-07 03:06:00,
2013-03-06 22:11:00,51.2,37.0,30.09,NW,326,0.0,3.0,58,0.00,,CLR,0.00,VWS V14.01,2013-03-07 03:11:00,
2013-03-06 22:17:00,51.0,36.8,30.09,North,1,0.0,3.0,58,0.00,,CLR,0.00,VWS V14.01,2013-03-07 03:17:00,
2013-03-06 22:22:00,50.8,36.6,30.10,ENE,74,0.0,3.0,58,0.00,,CLR,0.00,VWS V14.01,2013-03-07 03:22:00,
2013-03-06 22:27:00,50.6,36.8,30.10,ESE,104,0.0,3.0,59,0.00,,CLR,0.00,VWS V14.01,2013-03-07 03:27:00,
2013-03-06 22:32:00,50.4,36.6,30.10,NE,53,0.0,3.0,59,0.00,,CLR,0.00,VWS V14.01,2013-03-07 03:32:00,
2013-03-06 22:37:00,50.4,36.6,30.10,East,85,0.0,5.0,59,0.00,,CLR,0.00,VWS V14.01,2013-03-07 03:37:00,
2013-03-06 22:42:00,50.4,36.2,30.10,ENE,65,0.0,5.0,58,0.00,,CLR,0.00,VWS V14.01,2013-03-07 03:42:00,
2013-03-06 22:47:00,50.3,36.1,30.10,NE,38,0.0,5.0,58,0.00,,CLR,0.00,VWS V14.01,2013-03-07 03:47:00,
2013-03-06 22:52:00,50.3,35.7,30.11,West,277,0.0,5.0,57,0.00,,CLR,0.00,VWS V14.01,2013-03-07 03:52:00,
2013-03-06 22:57:00,50.2,35.6,30.11,WSW,242,0.0,5.0,57,0.00,,CLR,0.00,VWS V14.01,2013-03-07 03:57:00,
2013-03-06 23:03:00,50.1,35.0,30.11,ENE,64,0.0,5.0,56,0.00,,CLR,0.00,VWS V14.01,2013-03-07 04:03:00,
2013-03-06 23:08:00,50.0,35.4,30.11,WNW,290,0.0,2.0,57,0.00,,CLR,0.00,VWS V14.01,2013-03-07 04:08:00,
2013-03-06 23:13:00,49.8,35.2,30.11,ENE,62,0.0,2.0,57,0.00,,CLR,0.00,VWS V14.01,2013-03-07 04:13:00,
2013-03-06 23:18:00,49.7,34.7,30.11,East,81,0.0,2.0,56,0.00,,CLR,0.00,VWS V14.01,2013-03-07 04:18:00,
2013-03-06 23:23:00,49.4,34.8,30.11,NNE,29,0.0,2.0,57,0.00,,CLR,0.00,VWS V14.01,2013-03-07 04:23:00,
2013-03-06 23:28:00,49.2,34.6,30.11,East,95,0.0,2.0,57,0.00,,CLR,0.00,VWS V14.01,2013-03-07 04:28:00,
2013-03-06 23:33:00,49.0,34.5,30.12,ENE,75,0.0,4.0,57,0.00,,CLR,0.00,VWS V14.01,2013-03-07 04:33:00,
2013-03-06 23:38:00,48.8,34.3,30.12,ENE,71,0.0,2.0,57,0.00,,CLR,0.00,VWS V14.01,2013-03-07 04:38:00,
2013-03-06 23:44:00,48.6,34.5,30.11,ENE,65,0.0,2.0,58,0.00,,CLR,0.00,VWS V14.01,2013-03-07 04:44:00,
2013-03-06 23:49:00,48.3,34.2,30.12,ENE,64,0.0,2.0,58,0.00,,CLR,0.00,VWS V14.01,2013-03-07 04:49:00,
2013-03-06 23:54:00,48.2,34.6,30.11,West,280,0.0,2.0,59,0.00,,CLR,0.00,VWS V14.01,2013-03-07 04:54:00,
2013-03-06 23:59:00,47.9,34.3,30.11,West,280,0.0,2.0,59,0.00,,CLR,0.00,VWS V14.01,2013-03-07 04:59:00,